createdAt,value
2022-11-08T00:00:45.243Z,16.57
2022-11-08T00:03:12.904Z,18.17
2022-11-08T00:05:58.937Z,17.83
2022-11-08T00:08:44.767Z,17.67
2022-11-08T00:11:30.637Z,17.73
2022-11-08T00:13:59.400Z,17.60
2022-11-08T00:16:28.566Z,16.53
2022-11-08T00:18:56.113Z,17.27
2022-11-08T00:21:24.131Z,16.83
2022-11-08T00:23:51.677Z,16.83
2022-11-08T00:26:19.169Z,16.03
2022-11-08T00:28:46.659Z,16.33
2022-11-08T00:31:14.203Z,17.23
2022-11-08T00:33:41.713Z,16.33
2022-11-08T00:36:09.643Z,16.77
2022-11-08T00:38:37.214Z,18.03
2022-11-08T00:41:04.713Z,16.27
2022-11-08T00:43:32.434Z,17.07
2022-11-08T00:45:59.871Z,16.90
2022-11-08T00:48:27.398Z,16.13
2022-11-08T00:50:54.862Z,15.17
2022-11-08T00:53:22.308Z,15.70
2022-11-08T00:55:49.800Z,14.87
2022-11-08T00:58:17.421Z,15.53
2022-11-08T01:00:45.200Z,15.03
2022-11-08T01:03:21.738Z,14.10
2022-11-08T01:05:50.463Z,15.53
2022-11-08T01:08:20.250Z,15.93
2022-11-08T01:10:53.055Z,16.80
2022-11-08T01:13:21.147Z,16.30
2022-11-08T01:15:49.604Z,14.83
2022-11-08T01:18:18.003Z,16.00
2022-11-08T01:20:47.950Z,15.30
2022-11-08T01:23:17.113Z,15.43
2022-11-08T01:25:47.395Z,14.73
2022-11-08T01:28:15.888Z,15.07
2022-11-08T01:30:45.256Z,15.47
2022-11-08T01:33:13.682Z,15.00
2022-11-08T01:35:45.211Z,15.57
2022-11-08T01:38:13.303Z,14.37
2022-11-08T01:40:48.517Z,13.83
2022-11-08T01:43:40.275Z,14.47
2022-11-08T01:46:12.968Z,13.80
2022-11-08T01:49:25.151Z,14.20
2022-11-08T01:52:08.399Z,15.27
2022-11-08T01:54:44.955Z,14.93
2022-11-08T01:57:19.617Z,16.30
2022-11-08T01:59:50.279Z,15.00
2022-11-08T02:02:18.717Z,15.43
2022-11-08T02:04:46.260Z,15.13
2022-11-08T02:07:14.729Z,15.80
2022-11-08T02:09:46.551Z,15.00
2022-11-08T02:12:15.991Z,16.23
2022-11-08T02:14:43.961Z,16.43
2022-11-08T02:17:11.990Z,15.87
2022-11-08T02:19:51.785Z,16.43
2022-11-08T02:22:29.594Z,15.00
2022-11-08T02:24:58.616Z,15.17
2022-11-08T02:27:26.770Z,15.13
2022-11-08T02:29:56.011Z,16.13
2022-11-08T02:32:26.381Z,15.53
2022-11-08T02:34:58.590Z,16.23
2022-11-08T02:37:27.172Z,16.57
2022-11-08T02:39:54.731Z,17.30
2022-11-08T02:42:22.300Z,16.87
2022-11-08T02:44:50.034Z,16.37
2022-11-08T02:47:17.788Z,15.67
2022-11-08T02:49:45.350Z,16.37
2022-11-08T02:52:12.894Z,16.83
2022-11-08T02:54:40.407Z,16.53
2022-11-08T02:57:07.971Z,16.00
2022-11-08T02:59:35.429Z,16.30
2022-11-08T03:02:02.976Z,16.20
2022-11-08T03:04:30.533Z,16.33
2022-11-08T03:06:58.045Z,16.73
2022-11-08T03:09:27.202Z,17.20
2022-11-08T03:11:54.709Z,16.17
2022-11-08T03:14:22.484Z,16.40
2022-11-08T03:16:49.905Z,16.80
2022-11-08T03:19:17.385Z,17.10
2022-11-08T03:21:44.960Z,16.57
2022-11-08T03:24:12.761Z,16.63
2022-11-08T03:26:40.258Z,16.07
2022-11-08T03:29:07.857Z,17.47
2022-11-08T03:31:35.356Z,17.07
2022-11-08T03:34:05.299Z,17.23
2022-11-08T03:36:32.722Z,16.90
2022-11-08T03:39:00.246Z,16.80
2022-11-08T03:41:27.782Z,17.43
2022-11-08T03:43:55.253Z,16.63
2022-11-08T03:46:22.788Z,17.93
2022-11-08T03:48:50.305Z,17.73
2022-11-08T03:51:17.880Z,17.50
2022-11-08T03:53:45.383Z,17.20
2022-11-08T03:56:12.837Z,16.90
2022-11-08T03:58:40.242Z,17.90
2022-11-08T04:01:08.154Z,17.00
2022-11-08T04:03:35.737Z,18.67
2022-11-08T04:06:04.554Z,17.93
2022-11-08T04:08:32.159Z,17.67
2022-11-08T04:11:20.739Z,17.67
2022-11-08T04:14:06.909Z,17.07
2022-11-08T04:16:34.633Z,16.87
2022-11-08T04:19:20.781Z,17.67
2022-11-08T04:21:50.989Z,17.77
2022-11-08T04:24:18.567Z,17.00
2022-11-08T04:26:46.413Z,16.97
2022-11-08T04:29:14.370Z,17.63
2022-11-08T04:31:42.144Z,17.37
2022-11-08T04:34:09.653Z,17.07
2022-11-08T04:36:37.101Z,15.97
2022-11-08T04:39:04.729Z,15.77
2022-11-08T04:41:32.285Z,17.43
2022-11-08T04:43:59.842Z,15.70
2022-11-08T04:46:29.454Z,17.50
2022-11-08T04:48:59.395Z,17.17
2022-11-08T04:51:31.015Z,16.43
2022-11-08T04:54:02.614Z,17.13
2022-11-08T04:56:31.766Z,17.10
2022-11-08T04:59:01.226Z,16.43
2022-11-08T05:01:33.281Z,16.97
2022-11-08T05:04:00.825Z,19.83
2022-11-08T05:06:32.510Z,18.63
2022-11-08T05:09:00.711Z,17.97
2022-11-08T05:11:30.535Z,26.30
2022-11-08T05:13:58.813Z,28.53
2022-11-08T05:16:32.283Z,21.90
2022-11-08T05:19:00.502Z,23.50
2022-11-08T05:21:47.122Z,33.70
2022-11-08T05:24:17.591Z,37.93
2022-11-08T05:26:48.354Z,43.80
2022-11-08T05:29:17.188Z,37.67
2022-11-08T05:31:45.079Z,32.60
2022-11-08T05:34:12.604Z,20.50
2022-11-08T05:36:40.093Z,19.20
2022-11-08T05:39:07.531Z,20.00
2022-11-08T05:41:35.001Z,19.40
2022-11-08T05:44:02.529Z,19.10
2022-11-08T05:46:29.956Z,18.00
2022-11-08T05:48:57.439Z,17.20
2022-11-08T05:51:24.966Z,16.83
2022-11-08T05:53:52.441Z,16.67
2022-11-08T05:56:21.286Z,16.60
2022-11-08T05:58:48.920Z,16.70
2022-11-08T06:01:20.824Z,17.43
2022-11-08T06:03:48.920Z,21.17
2022-11-08T06:06:19.958Z,23.90
2022-11-08T06:08:50.553Z,21.33
2022-11-08T06:11:23.141Z,18.53
2022-11-08T06:13:53.456Z,18.07
2022-11-08T06:16:23.379Z,17.73
2022-11-08T06:18:50.882Z,17.93
2022-11-08T06:21:21.416Z,19.07
2022-11-08T06:23:53.592Z,19.37
2022-11-08T06:26:22.949Z,22.07
2022-11-08T06:28:50.646Z,18.50
2022-11-08T06:31:18.073Z,18.27
2022-11-08T06:33:46.418Z,18.93
2022-11-08T06:36:13.855Z,19.57
2022-11-08T06:38:41.353Z,18.93
2022-11-08T06:41:17.228Z,21.63
2022-11-08T06:43:44.688Z,20.33
2022-11-08T06:46:12.194Z,20.97
2022-11-08T06:48:39.710Z,20.83
2022-11-08T06:51:07.440Z,21.70
2022-11-08T06:53:36.514Z,22.43
2022-11-08T06:56:04.437Z,22.43
2022-11-08T06:58:32.054Z,22.93
2022-11-08T07:01:02.339Z,22.30
2022-11-08T07:03:30.508Z,21.93
2022-11-08T07:05:58.147Z,23.80
2022-11-08T07:08:25.632Z,22.37
2022-11-08T07:10:53.775Z,21.77
2022-11-08T07:13:21.778Z,21.07
2022-11-08T07:15:49.518Z,22.00
2022-11-08T07:18:19.359Z,21.40
2022-11-08T07:20:47.153Z,20.90
2022-11-08T07:23:15.124Z,21.23
2022-11-08T07:25:42.687Z,21.80
2022-11-08T07:28:18.552Z,21.70
2022-11-08T07:30:48.020Z,22.17
2022-11-08T07:33:16.885Z,22.90
2022-11-08T07:35:47.617Z,26.67
2022-11-08T07:38:15.123Z,29.30
2022-11-08T07:40:43.161Z,33.07
2022-11-08T07:43:23.366Z,30.03
2022-11-08T07:46:02.457Z,28.77
2022-11-08T07:48:31.711Z,26.87
2022-11-08T07:50:59.161Z,24.80
2022-11-08T07:53:26.640Z,24.03
2022-11-08T07:55:55.198Z,23.47
2022-11-08T07:58:22.746Z,23.73
2022-11-08T08:00:52.794Z,24.13
2022-11-08T08:03:20.861Z,23.47
2022-11-08T08:06:00.740Z,24.00
2022-11-08T08:08:29.875Z,22.23
2022-11-08T08:11:19.577Z,21.40
2022-11-08T08:13:47.430Z,19.80
2022-11-08T08:16:14.830Z,20.77
2022-11-08T08:18:42.317Z,20.40
2022-11-08T08:21:12.549Z,18.23
2022-11-08T08:23:40.051Z,18.13
2022-11-08T08:26:07.593Z,17.37
2022-11-08T08:28:35.054Z,18.30
2022-11-08T08:31:02.541Z,17.87
2022-11-08T08:33:30.179Z,17.33
2022-11-08T08:36:01.316Z,18.67
2022-11-08T08:38:32.835Z,16.93
2022-11-08T08:41:02.449Z,17.60
2022-11-08T08:43:35.158Z,17.67
2022-11-08T08:46:07.019Z,17.67
2022-11-08T08:48:35.911Z,16.63
2022-11-08T08:51:03.343Z,16.67
2022-11-08T08:53:30.805Z,15.53
2022-11-08T08:55:58.417Z,16.83
2022-11-08T08:58:25.946Z,16.23
2022-11-08T09:03:40.946Z,14.70
2022-11-08T09:06:08.414Z,15.30
2022-11-08T09:08:36.029Z,14.67
2022-11-08T09:11:03.676Z,15.13
2022-11-08T09:13:32.417Z,16.20
2022-11-08T09:16:02.911Z,15.00
2022-11-08T09:18:31.458Z,16.77
2022-11-08T09:20:59.317Z,12.57
2022-11-08T09:23:27.367Z,13.30
2022-11-08T09:26:04.271Z,13.57
2022-11-08T09:28:34.156Z,13.60
2022-11-08T09:31:06.625Z,16.43
2022-11-08T09:33:34.823Z,16.07
2022-11-08T09:36:04.335Z,13.57
2022-11-08T09:38:32.151Z,14.30
2022-11-08T09:41:17.559Z,14.60
2022-11-08T09:43:47.767Z,15.60
2022-11-08T09:47:18.785Z,13.80
2022-11-08T09:50:20.681Z,12.73
2022-11-08T09:53:20.237Z,12.17
2022-11-08T09:56:01.244Z,11.17
2022-11-08T09:58:41.137Z,11.47
2022-11-08T10:01:12.700Z,10.97
2022-11-08T10:03:44.961Z,11.50
2022-11-08T10:06:39.635Z,11.30
2022-11-08T10:09:25.248Z,10.43
2022-11-08T10:12:27.841Z,10.90
2022-11-08T10:15:12.509Z,10.53
2022-11-08T10:17:50.716Z,9.47
2022-11-08T10:20:30.144Z,9.93
2022-11-08T10:23:08.196Z,9.17
2022-11-08T10:25:48.226Z,9.43
2022-11-08T10:28:22.880Z,9.60
2022-11-08T10:30:54.354Z,10.13
2022-11-08T10:33:49.533Z,9.53
2022-11-08T10:36:42.466Z,9.40
2022-11-08T10:39:25.018Z,9.77
2022-11-08T10:42:05.949Z,9.40
2022-11-08T10:44:35.245Z,9.33
2022-11-08T10:47:07.120Z,9.00
2022-11-08T10:49:44.131Z,9.13
2022-11-08T10:52:26.233Z,9.07
2022-11-08T10:54:56.553Z,9.50
2022-11-08T10:57:33.333Z,9.60
2022-11-08T11:00:21.098Z,9.27
2022-11-08T11:02:53.938Z,9.70
2022-11-08T11:05:29.385Z,10.00
2022-11-08T11:08:08.618Z,9.83
2022-11-08T11:10:41.046Z,9.77
2022-11-08T11:13:29.168Z,9.73
2022-11-08T11:16:00.057Z,9.83
2022-11-08T11:18:49.094Z,9.50
2022-11-08T11:21:23.006Z,8.83
2022-11-08T11:23:56.443Z,9.53
2022-11-08T11:26:34.358Z,9.87
2022-11-08T11:29:19.746Z,10.43
2022-11-08T11:31:50.773Z,9.68
2022-11-08T11:34:18.177Z,10.32
2022-11-08T11:36:51.222Z,10.65
2022-11-08T11:39:44.330Z,10.80
2022-11-08T11:42:47.300Z,10.85
2022-11-08T11:45:35.253Z,10.13
2022-11-08T11:48:15.602Z,9.88
2022-11-08T11:50:49.906Z,10.82
2022-11-08T11:53:23.307Z,10.38
2022-11-08T11:56:18.133Z,10.55
2022-11-08T11:59:41.891Z,10.40
2022-11-08T12:02:53.455Z,10.80
2022-11-08T12:05:59.793Z,10.93
2022-11-08T12:08:54.482Z,10.98
2022-11-08T12:11:47.649Z,10.00
2022-11-08T12:14:29.780Z,10.73
2022-11-08T12:17:37.911Z,11.45
2022-11-08T12:20:39.402Z,11.48
2022-11-08T12:23:18.721Z,11.68
2022-11-08T12:26:11.302Z,12.75
2022-11-08T12:29:00.430Z,14.03
2022-11-08T12:31:43.075Z,12.07
2022-11-08T12:34:43.493Z,14.23
2022-11-08T12:37:42.751Z,12.07
2022-11-08T12:40:45.467Z,12.70
2022-11-08T12:43:35.910Z,12.70
2022-11-08T12:46:19.378Z,12.57
2022-11-08T12:49:16.074Z,12.60
2022-11-08T12:52:27.584Z,12.90
2022-11-08T12:55:02.708Z,12.40
2022-11-08T12:57:31.382Z,12.60
2022-11-08T13:00:28.321Z,11.47
2022-11-08T13:03:30.846Z,12.00
2022-11-08T13:06:15.165Z,12.38
2022-11-08T13:09:22.466Z,11.48
2022-11-08T13:12:02.617Z,11.65
2022-11-08T13:14:31.045Z,12.35
2022-11-08T13:32:12.198Z,12.98
2022-11-08T13:34:56.332Z,11.93
2022-11-08T13:38:08.409Z,108.25
2022-11-08T13:40:46.693Z,31.97
2022-11-08T13:43:22.568Z,33.97
2022-11-08T13:45:50.633Z,17.37
2022-11-08T13:48:23.738Z,12.10
2022-11-08T13:51:15.100Z,16.25
2022-11-08T13:53:53.097Z,38.95
2022-11-08T13:57:00.621Z,56.65
2022-11-08T13:59:31.071Z,55.95
2022-11-08T14:01:58.905Z,45.47
2022-11-08T14:04:33.630Z,27.08
2022-11-08T14:07:25.958Z,52.63
2022-11-08T14:10:04.482Z,45.37
2022-11-08T14:13:27.793Z,15.33
2022-11-08T14:16:07.800Z,11.17
2022-11-08T14:18:39.283Z,12.00
2022-11-08T14:21:08.231Z,12.63
2022-11-08T14:23:40.318Z,11.47
2022-11-08T14:26:22.268Z,12.77
2022-11-08T14:28:52.398Z,49.23
2022-11-08T14:31:31.885Z,87.87
2022-11-08T14:34:01.054Z,94.87
2022-11-08T14:36:31.062Z,102.97
2022-11-08T14:39:16.298Z,118.77
2022-11-08T14:41:53.213Z,145.33
2022-11-08T14:44:25.071Z,138.17
2022-11-08T14:46:53.934Z,143.13
2022-11-08T14:49:35.159Z,136.03
2022-11-08T14:52:07.711Z,139.57
2022-11-08T14:54:42.967Z,146.13
2022-11-08T14:57:32.675Z,242.00
2022-11-08T15:00:13.787Z,60.13
2022-11-08T15:02:56.689Z,21.57
2022-11-08T15:05:39.669Z,15.87
2022-11-08T15:08:27.592Z,14.83
2022-11-08T15:10:59.502Z,14.47
2022-11-08T15:13:30.626Z,13.13
2022-11-08T15:16:04.034Z,15.00
2022-11-08T15:18:43.604Z,13.07
2022-11-08T15:21:22.615Z,13.23
2022-11-08T15:24:12.091Z,13.13
2022-11-08T15:27:01.684Z,13.23
2022-11-08T15:29:29.169Z,13.17
2022-11-08T15:32:01.930Z,12.27
2022-11-08T15:34:39.096Z,11.83
2022-11-08T15:37:36.284Z,12.67
2022-11-08T15:40:31.883Z,13.07
2022-11-08T15:43:01.044Z,12.60
2022-11-08T15:45:33.074Z,12.47
2022-11-08T15:48:09.164Z,11.93
2022-11-08T15:50:36.887Z,12.40
2022-11-08T15:53:05.872Z,12.80
2022-11-08T15:55:39.639Z,12.97
2022-11-08T15:58:18.423Z,12.47
2022-11-08T16:00:57.791Z,12.67
2022-11-08T16:03:25.717Z,12.40
2022-11-08T16:05:53.326Z,13.03
2022-11-08T16:08:21.353Z,11.93
2022-11-08T16:11:01.246Z,13.37
2022-11-08T16:13:36.703Z,13.60
2022-11-08T16:16:12.087Z,12.80
2022-11-08T16:18:41.452Z,12.87
2022-11-08T16:21:13.447Z,13.40
2022-11-08T16:23:42.006Z,12.83
2022-11-08T16:26:17.216Z,12.83
2022-11-08T16:28:45.534Z,13.80
2022-11-08T16:31:16.432Z,13.77
2022-11-08T16:33:46.255Z,14.37
2022-11-08T16:36:23.488Z,14.43
2022-11-08T16:38:54.763Z,14.90
2022-11-08T16:41:23.860Z,15.27
2022-11-08T16:43:51.552Z,14.57
2022-11-08T16:46:22.088Z,15.87
2022-11-08T16:48:58.372Z,17.00
2022-11-08T16:51:28.200Z,16.87
2022-11-08T16:53:55.770Z,17.90
2022-11-08T16:56:26.390Z,17.90
2022-11-08T16:58:54.970Z,17.70
2022-11-08T17:01:35.631Z,18.20
2022-11-08T17:04:05.436Z,18.70
2022-11-08T17:06:33.804Z,19.13
2022-11-08T17:09:05.850Z,19.50
2022-11-08T17:11:34.477Z,20.00
2022-11-08T17:14:07.946Z,21.67
2022-11-08T17:16:47.300Z,23.13
2022-11-08T17:19:14.890Z,27.10
2022-11-08T17:21:45.562Z,43.13
2022-11-08T17:24:21.545Z,54.47
2022-11-08T17:26:51.377Z,34.23
2022-11-08T17:29:19.965Z,30.50
2022-11-08T17:31:53.798Z,31.53
2022-11-08T17:34:21.916Z,32.20
2022-11-08T17:36:53.119Z,31.50
2022-11-08T17:39:21.609Z,28.37
2022-11-08T17:41:51.569Z,24.63
2022-11-08T17:44:20.771Z,23.93
2022-11-08T17:46:49.294Z,24.23
2022-11-08T17:49:19.937Z,25.23
2022-11-08T17:51:48.879Z,29.43
2022-11-08T17:54:17.386Z,33.07
2022-11-08T17:56:51.821Z,37.73
2022-11-08T17:59:22.559Z,39.67
2022-11-08T18:01:51.484Z,41.30
2022-11-08T18:04:20.140Z,41.27
2022-11-08T18:06:49.066Z,42.43
2022-11-08T18:09:19.137Z,39.27
2022-11-08T18:11:48.506Z,38.43
2022-11-08T18:14:28.806Z,34.93
2022-11-08T18:17:00.245Z,32.73
2022-11-08T18:19:30.873Z,31.77
2022-11-08T18:22:00.385Z,29.27
2022-11-08T18:24:35.049Z,28.40
2022-11-08T18:27:05.483Z,29.43
2022-11-08T18:29:36.924Z,28.97
2022-11-08T18:32:05.173Z,29.70
2022-11-08T18:34:32.737Z,29.23
2022-11-08T18:37:00.457Z,29.47
2022-11-08T18:39:28.006Z,30.30
2022-11-08T18:41:56.479Z,30.90
2022-11-08T18:44:24.926Z,33.40
2022-11-08T18:46:58.363Z,31.57
2022-11-08T18:49:29.790Z,31.97
2022-11-08T18:51:59.965Z,31.37
2022-11-08T18:54:31.889Z,29.80
2022-11-08T18:57:02.307Z,29.73
2022-11-08T18:59:35.740Z,30.17
2022-11-08T19:02:03.496Z,32.40
2022-11-08T19:04:31.425Z,32.50
2022-11-08T19:07:01.033Z,33.50
2022-11-08T19:09:29.029Z,36.80
2022-11-08T19:12:00.482Z,34.20
2022-11-08T19:14:30.985Z,33.67
2022-11-08T19:17:01.575Z,34.50
2022-11-08T19:19:29.985Z,34.93
2022-11-08T19:22:00.631Z,33.90
2022-11-08T19:24:31.155Z,35.10
2022-11-08T19:26:58.689Z,33.87
2022-11-08T19:29:28.734Z,30.60
2022-11-08T19:32:01.325Z,32.50
2022-11-08T19:34:34.032Z,40.00
2022-11-08T19:37:01.920Z,32.70
2022-11-08T19:39:33.678Z,30.57
2022-11-08T19:42:03.239Z,26.13
2022-11-08T19:44:32.825Z,25.90
2022-11-08T19:47:03.148Z,26.10
2022-11-08T19:49:35.615Z,26.17
2022-11-08T19:52:06.620Z,25.43
2022-11-08T19:54:36.948Z,26.27
2022-11-08T19:57:05.809Z,25.33
2022-11-08T19:59:38.090Z,25.43
2022-11-08T20:02:08.931Z,25.13
2022-11-08T20:04:36.746Z,25.20
2022-11-08T20:07:05.803Z,24.90
2022-11-08T20:09:39.505Z,27.77
2022-11-08T20:12:09.755Z,27.47
2022-11-08T20:14:38.278Z,27.43
2022-11-08T20:17:07.626Z,26.20
2022-11-08T20:19:35.170Z,26.60
2022-11-08T20:22:04.671Z,28.27
2022-11-08T20:24:32.977Z,28.87
2022-11-08T20:27:05.247Z,28.20
2022-11-08T20:29:34.436Z,32.93
2022-11-08T20:32:03.759Z,35.87
2022-11-08T20:34:33.074Z,38.50
2022-11-08T20:37:21.611Z,38.63
2022-11-08T20:39:49.235Z,36.33
2022-11-08T20:42:20.772Z,36.37
2022-11-08T20:44:56.046Z,34.67
2022-11-08T20:47:24.670Z,34.50
2022-11-08T20:49:54.873Z,35.37
2022-11-08T20:52:26.710Z,32.70
2022-11-08T20:54:56.982Z,33.17
2022-11-08T20:57:24.560Z,31.73
2022-11-08T20:59:53.934Z,34.43
2022-11-08T21:02:22.157Z,34.07
2022-11-08T21:04:49.767Z,33.13
2022-11-08T21:10:35.905Z,34.93
2022-11-08T21:12:53.958Z,32.63
2022-11-08T21:15:26.794Z,32.40
2022-11-08T21:17:54.655Z,36.67
2022-11-08T21:20:23.437Z,35.53
2022-11-08T21:22:50.987Z,34.50
2022-11-08T21:25:19.739Z,32.33
2022-11-08T21:27:48.600Z,32.07
2022-11-08T21:30:16.926Z,31.10
2022-11-08T21:32:44.397Z,35.17
2022-11-08T21:35:15.999Z,37.77
2022-11-08T21:37:44.644Z,40.33
2022-11-08T21:40:12.456Z,42.37
2022-11-08T21:42:42.658Z,41.33
2022-11-08T21:45:14.736Z,40.47
2022-11-08T21:47:43.365Z,39.63
2022-11-08T21:50:11.078Z,40.73
2022-11-08T21:52:41.957Z,33.80
2022-11-08T21:55:12.537Z,38.37
2022-11-08T21:57:42.045Z,46.60
2022-11-08T22:00:12.116Z,42.33
2022-11-08T22:02:41.291Z,43.23
2022-11-08T22:05:09.936Z,48.33
2022-11-08T22:07:38.162Z,41.17
2022-11-08T22:10:07.033Z,37.87
2022-11-08T22:12:35.718Z,38.23
2022-11-08T22:15:03.167Z,36.03
2022-11-08T22:17:30.760Z,35.73
2022-11-08T22:19:58.188Z,34.47
2022-11-08T22:22:25.687Z,33.20
2022-11-08T22:24:53.451Z,32.77
2022-11-08T22:27:20.960Z,28.07
2022-11-08T22:29:48.424Z,27.60
2022-11-08T22:32:15.908Z,31.60
2022-11-08T22:34:44.153Z,30.30
2022-11-08T22:37:11.569Z,28.60
2022-11-08T22:39:39.156Z,37.67
2022-11-08T22:42:06.611Z,46.30
2022-11-08T22:44:34.166Z,48.57
2022-11-08T22:47:01.642Z,50.07
2022-11-08T22:49:29.117Z,44.07
2022-11-08T22:51:59.076Z,41.57
2022-11-08T22:54:27.469Z,33.50
2022-11-08T22:56:55.043Z,34.13
2022-11-08T22:59:22.488Z,28.00
2022-11-08T23:01:50.035Z,27.17
2022-11-08T23:04:17.653Z,25.80
2022-11-08T23:06:45.187Z,30.03
2022-11-08T23:09:12.792Z,30.70
2022-11-08T23:11:58.806Z,30.47
2022-11-08T23:14:44.681Z,29.37
2022-11-08T23:17:12.870Z,28.43
2022-11-08T23:19:58.756Z,28.43
2022-11-08T23:22:44.634Z,29.07
2022-11-08T23:25:12.147Z,28.37
2022-11-08T23:27:59.508Z,30.93
2022-11-08T23:30:45.748Z,28.43
2022-11-08T23:33:13.394Z,28.13
2022-11-08T23:36:01.913Z,29.07
2022-11-08T23:38:29.997Z,29.20
2022-11-08T23:41:18.358Z,29.07
2022-11-08T23:44:04.703Z,28.00
2022-11-08T23:46:32.310Z,27.93
2022-11-08T23:48:59.836Z,26.87
2022-11-08T23:51:27.288Z,26.77
2022-11-08T23:53:54.776Z,26.83
2022-11-08T23:56:27.583Z,27.03
2022-11-08T23:58:58.996Z,28.63
